sensor_id;sensor_type;location;lat;lon;timestamp;temperature;humidity
2054;DHT22;1032;52.542;13.440;2023-03-14T00:00:17;12.90;99.90
2054;DHT22;1032;52.542;13.440;2023-03-14T00:02:44;13.00;99.90
2054;DHT22;1032;52.542;13.440;2023-03-14T00:05:11;12.70;99.90
2054;DHT22;1032;52.542;13.440;2023-03-14T00:07:39;13.20;99.90
2054;DHT22;1032;52.542;13.440;2023-03-14T00:10:10;13.40;99.90
2054;DHT22;1032;52.542;13.440;2023-03-14T00:12:38;13.00;99.90
2054;DHT22;1032;52.542;13.440;2023-03-14T00:15:05;13.10;99.90
2054;DHT22;1032;52.542;13.440;2023-03-14T00:17:33;12.90;99.90
2054;DHT22;1032;52.542;13.440;2023-03-14T00:19:59;13.00;99.90
2054;DHT22;1032;52.542;13.440;2023-03-14T00:22:33;13.30;99.90
2054;DHT22;1032;52.542;13.440;2023-03-14T00:25:00;12.70;99.90
2054;DHT22;1032;52.542;13.440;2023-03-14T00:27:29;12.50;99.90
2054;DHT22;1032;52.542;13.440;2023-03-14T00:29:55;12.80;99.90
2054;DHT22;1032;52.542;13.440;2023-03-14T00:32:22;12.60;99.90
2054;DHT22;1032;52.542;13.440;2023-03-14T00:34:49;12.40;99.90
2054;DHT22;1032;52.542;13.440;2023-03-14T00:37:15;12.80;99.90
2054;DHT22;1032;52.542;13.440;2023-03-14T00:39:42;12.70;99.90
2054;DHT22;1032;52.542;13.440;2023-03-14T00:42:09;12.80;99.90
2054;DHT22;1032;52.542;13.440;2023-03-14T00:44:37;12.60;99.90
2054;DHT22;1032;52.542;13.440;2023-03-14T00:47:06;12.90;99.90
2054;DHT22;1032;52.542;13.440;2023-03-14T00:49:33;12.80;99.90
2054;DHT22;1032;52.542;13.440;2023-03-14T00:51:59;12.20;99.90
2054;DHT22;1032;52.542;13.440;2023-03-14T00:54:26;12.80;99.90
2054;DHT22;1032;52.542;13.440;2023-03-14T00:56:53;12.90;99.90
2054;DHT22;1032;52.542;13.440;2023-03-14T00:59:19;13.00;99.90
2054;DHT22;1032;52.542;13.440;2023-03-14T01:01:47;12.40;99.90
2054;DHT22;1032;52.542;13.440;2023-03-14T01:04:14;12.10;99.90
2054;DHT22;1032;52.542;13.440;2023-03-14T01:06:40;12.90;99.90
2054;DHT22;1032;52.542;13.440;2023-03-14T01:09:09;12.50;99.90
2054;DHT22;1032;52.542;13.440;2023-03-14T01:11:36;12.40;99.90
2054;DHT22;1032;52.542;13.440;2023-03-14T01:14:03;12.00;99.90
2054;DHT22;1032;52.542;13.440;2023-03-14T01:16:32;12.60;99.90
2054;DHT22;1032;52.542;13.440;2023-03-14T01:19:01;12.30;99.90
2054;DHT22;1032;52.542;13.440;2023-03-14T01:21:30;12.60;99.90
2054;DHT22;1032;52.542;13.440;2023-03-14T01:23:59;12.40;99.90
2054;DHT22;1032;52.542;13.440;2023-03-14T01:26:29;11.90;99.90
2054;DHT22;1032;52.542;13.440;2023-03-14T01:28:56;12.60;99.90
2054;DHT22;1032;52.542;13.440;2023-03-14T01:31:24;12.60;99.90
2054;DHT22;1032;52.542;13.440;2023-03-14T01:33:51;12.30;99.90
2054;DHT22;1032;52.542;13.440;2023-03-14T01:36:20;12.20;99.90
2054;DHT22;1032;52.542;13.440;2023-03-14T01:38:46;12.40;99.90
2054;DHT22;1032;52.542;13.440;2023-03-14T01:41:17;11.80;99.90
2054;DHT22;1032;52.542;13.440;2023-03-14T01:43:44;12.60;99.90
2054;DHT22;1032;52.542;13.440;2023-03-14T01:49:13;12.20;99.90
2054;DHT22;1032;52.542;13.440;2023-03-14T01:51:50;11.90;99.90
2054;DHT22;1032;52.542;13.440;2023-03-14T01:54:21;12.70;99.90
2054;DHT22;1032;52.542;13.440;2023-03-14T01:56:52;11.80;99.90
2054;DHT22;1032;52.542;13.440;2023-03-14T01:59:20;12.60;99.90
2054;DHT22;1032;52.542;13.440;2023-03-14T02:01:47;12.50;99.90
2054;DHT22;1032;52.542;13.440;2023-03-14T02:04:17;12.00;99.90
2054;DHT22;1032;52.542;13.440;2023-03-14T02:06:50;12.20;99.90
2054;DHT22;1032;52.542;13.440;2023-03-14T02:09:20;12.50;99.90
2054;DHT22;1032;52.542;13.440;2023-03-14T02:11:47;12.50;99.90
2054;DHT22;1032;52.542;13.440;2023-03-14T02:14:38;12.40;99.90
2054;DHT22;1032;52.542;13.440;2023-03-14T02:17:19;12.80;99.90
2054;DHT22;1032;52.542;13.440;2023-03-14T02:20:09;12.00;99.90
2054;DHT22;1032;52.542;13.440;2023-03-14T02:22:43;12.90;99.90
2054;DHT22;1032;52.542;13.440;2023-03-14T02:25:15;12.70;99.90
2054;DHT22;1032;52.542;13.440;2023-03-14T02:27:46;12.70;99.90
2054;DHT22;1032;52.542;13.440;2023-03-14T02:30:16;12.50;99.90
2054;DHT22;1032;52.542;13.440;2023-03-14T02:32:46;12.80;99.90
2054;DHT22;1032;52.542;13.440;2023-03-14T02:35:16;12.60;99.90
2054;DHT22;1032;52.542;13.440;2023-03-14T02:37:47;12.30;99.90
2054;DHT22;1032;52.542;13.440;2023-03-14T02:40:15;12.10;99.90
2054;DHT22;1032;52.542;13.440;2023-03-14T02:42:44;12.40;99.90
2054;DHT22;1032;52.542;13.440;2023-03-14T02:45:36;12.90;99.90
2054;DHT22;1032;52.542;13.440;2023-03-14T02:48:09;12.30;99.90
2054;DHT22;1032;52.542;13.440;2023-03-14T02:50:38;12.40;99.90
2054;DHT22;1032;52.542;13.440;2023-03-14T02:53:05;12.20;99.90
2054;DHT22;1032;52.542;13.440;2023-03-14T02:55:32;12.80;99.90
2054;DHT22;1032;52.542;13.440;2023-03-14T02:58:05;12.20;99.90
2054;DHT22;1032;52.542;13.440;2023-03-14T03:00:32;12.60;99.90
2054;DHT22;1032;52.542;13.440;2023-03-14T03:02:59;11.90;99.90
2054;DHT22;1032;52.542;13.440;2023-03-14T03:05:26;12.20;99.90
2054;DHT22;1032;52.542;13.440;2023-03-14T03:07:53;12.10;99.90
2054;DHT22;1032;52.542;13.440;2023-03-14T03:10:19;12.20;99.90
2054;DHT22;1032;52.542;13.440;2023-03-14T03:12:46;12.20;99.90
2054;DHT22;1032;52.542;13.440;2023-03-14T03:15:14;12.50;99.90
2054;DHT22;1032;52.542;13.440;2023-03-14T03:17:40;12.00;99.90
2054;DHT22;1032;52.542;13.440;2023-03-14T03:20:08;12.20;99.90
2054;DHT22;1032;52.542;13.440;2023-03-14T03:22:36;12.10;99.90
2054;DHT22;1032;52.542;13.440;2023-03-14T03:25:02;12.10;99.90
2054;DHT22;1032;52.542;13.440;2023-03-14T03:27:30;12.10;99.90
2054;DHT22;1032;52.542;13.440;2023-03-14T03:29:57;12.30;99.90
2054;DHT22;1032;52.542;13.440;2023-03-14T03:32:26;12.10;99.90
2054;DHT22;1032;52.542;13.440;2023-03-14T03:34:52;12.10;99.90
2054;DHT22;1032;52.542;13.440;2023-03-14T03:37:19;12.10;99.90
2054;DHT22;1032;52.542;13.440;2023-03-14T03:39:46;12.00;99.90
2054;DHT22;1032;52.542;13.440;2023-03-14T03:42:13;12.10;99.90
2054;DHT22;1032;52.542;13.440;2023-03-14T03:44:39;12.00;99.90
2054;DHT22;1032;52.542;13.440;2023-03-14T03:47:08;12.10;99.90
2054;DHT22;1032;52.542;13.440;2023-03-14T03:49:36;12.10;99.90
2054;DHT22;1032;52.542;13.440;2023-03-14T03:52:03;12.10;99.90
2054;DHT22;1032;52.542;13.440;2023-03-14T03:54:30;11.90;99.90
2054;DHT22;1032;52.542;13.440;2023-03-14T03:56:57;12.20;99.90
2054;DHT22;1032;52.542;13.440;2023-03-14T03:59:24;12.20;99.90
2054;DHT22;1032;52.542;13.440;2023-03-14T04:01:50;12.00;99.90
2054;DHT22;1032;52.542;13.440;2023-03-14T04:04:17;11.40;99.90
2054;DHT22;1032;52.542;13.440;2023-03-14T04:06:45;11.90;99.90
2054;DHT22;1032;52.542;13.440;2023-03-14T04:09:12;12.30;99.90
2054;DHT22;1032;52.542;13.440;2023-03-14T04:11:48;12.30;99.90
2054;DHT22;1032;52.542;13.440;2023-03-14T04:14:27;12.10;99.90
2054;DHT22;1032;52.542;13.440;2023-03-14T04:17:05;11.90;99.90
2054;DHT22;1032;52.542;13.440;2023-03-14T04:19:32;12.00;99.90
2054;DHT22;1032;52.542;13.440;2023-03-14T04:22:00;11.80;99.90
2054;DHT22;1032;52.542;13.440;2023-03-14T04:24:32;11.70;99.90
2054;DHT22;1032;52.542;13.440;2023-03-14T04:26:59;12.00;99.90
2054;DHT22;1032;52.542;13.440;2023-03-14T04:29:25;12.00;99.90
2054;DHT22;1032;52.542;13.440;2023-03-14T04:31:52;12.30;99.90
2054;DHT22;1032;52.542;13.440;2023-03-14T04:34:19;11.80;99.90
2054;DHT22;1032;52.542;13.440;2023-03-14T04:36:50;11.90;99.90
2054;DHT22;1032;52.542;13.440;2023-03-14T04:39:23;11.80;99.90
2054;DHT22;1032;52.542;13.440;2023-03-14T04:42:03;12.10;99.90
2054;DHT22;1032;52.542;13.440;2023-03-14T04:44:31;11.50;99.90
2054;DHT22;1032;52.542;13.440;2023-03-14T04:46:58;12.20;99.90
2054;DHT22;1032;52.542;13.440;2023-03-14T04:49:25;11.80;99.90
2054;DHT22;1032;52.542;13.440;2023-03-14T04:51:51;12.20;99.90
2054;DHT22;1032;52.542;13.440;2023-03-14T04:54:19;11.80;99.90
2054;DHT22;1032;52.542;13.440;2023-03-14T04:56:51;11.70;99.90
2054;DHT22;1032;52.542;13.440;2023-03-14T04:59:17;11.90;99.90
2054;DHT22;1032;52.542;13.440;2023-03-14T05:01:45;11.90;99.90
2054;DHT22;1032;52.542;13.440;2023-03-14T05:04:26;11.90;99.90
2054;DHT22;1032;52.542;13.440;2023-03-14T05:07:02;11.90;99.90
2054;DHT22;1032;52.542;13.440;2023-03-14T05:09:51;11.30;99.90
2054;DHT22;1032;52.542;13.440;2023-03-14T05:12:31;11.80;99.90
2054;DHT22;1032;52.542;13.440;2023-03-14T05:15:28;11.60;99.90
2054;DHT22;1032;52.542;13.440;2023-03-14T05:18:18;11.70;99.90
2054;DHT22;1032;52.542;13.440;2023-03-14T05:21:03;11.80;99.90
2054;DHT22;1032;52.542;13.440;2023-03-14T05:23:54;11.90;99.90
2054;DHT22;1032;52.542;13.440;2023-03-14T05:26:35;11.80;99.90
2054;DHT22;1032;52.542;13.440;2023-03-14T05:29:20;11.20;99.90
2054;DHT22;1032;52.542;13.440;2023-03-14T05:32:06;12.20;99.90
2054;DHT22;1032;52.542;13.440;2023-03-14T05:34:49;12.00;99.90
2054;DHT22;1032;52.542;13.440;2023-03-14T05:37:30;11.70;99.90
2054;DHT22;1032;52.542;13.440;2023-03-14T05:40:17;12.10;99.90
2054;DHT22;1032;52.542;13.440;2023-03-14T05:42:57;11.70;99.90
2054;DHT22;1032;52.542;13.440;2023-03-14T05:45:40;11.80;99.90
2054;DHT22;1032;52.542;13.440;2023-03-14T05:48:25;12.00;99.90
2054;DHT22;1032;52.542;13.440;2023-03-14T05:51:18;12.20;99.90
2054;DHT22;1032;52.542;13.440;2023-03-14T05:53:55;12.20;99.90
2054;DHT22;1032;52.542;13.440;2023-03-14T05:56:40;11.90;99.90
2054;DHT22;1032;52.542;13.440;2023-03-14T05:59:16;11.90;99.90
2054;DHT22;1032;52.542;13.440;2023-03-14T06:02:13;11.70;99.90
2054;DHT22;1032;52.542;13.440;2023-03-14T06:04:51;11.60;99.90
2054;DHT22;1032;52.542;13.440;2023-03-14T06:07:18;12.00;99.90
2054;DHT22;1032;52.542;13.440;2023-03-14T06:09:45;12.00;99.90
2054;DHT22;1032;52.542;13.440;2023-03-14T06:12:14;12.10;99.90
2054;DHT22;1032;52.542;13.440;2023-03-14T06:14:43;12.00;99.90
2054;DHT22;1032;52.542;13.440;2023-03-14T06:17:10;11.80;99.90
2054;DHT22;1032;52.542;13.440;2023-03-14T06:19:46;11.90;99.90
2054;DHT22;1032;52.542;13.440;2023-03-14T06:22:13;11.80;99.90
2054;DHT22;1032;52.542;13.440;2023-03-14T06:24:40;12.20;99.90
2054;DHT22;1032;52.542;13.440;2023-03-14T06:27:06;12.00;99.90
2054;DHT22;1032;52.542;13.440;2023-03-14T06:29:33;12.00;99.90
2054;DHT22;1032;52.542;13.440;2023-03-14T06:32:01;12.10;99.90
2054;DHT22;1032;52.542;13.440;2023-03-14T06:34:28;12.00;99.90
2054;DHT22;1032;52.542;13.440;2023-03-14T06:36:56;11.50;99.90
2054;DHT22;1032;52.542;13.440;2023-03-14T06:39:23;12.40;99.90
2054;DHT22;1032;52.542;13.440;2023-03-14T06:41:59;12.50;99.90
2054;DHT22;1032;52.542;13.440;2023-03-14T06:44:25;12.10;99.90
2054;DHT22;1032;52.542;13.440;2023-03-14T06:46:52;12.70;99.90
2054;DHT22;1032;52.542;13.440;2023-03-14T06:49:19;12.50;99.90
2054;DHT22;1032;52.542;13.440;2023-03-14T06:51:48;12.40;99.90
2054;DHT22;1032;52.542;13.440;2023-03-14T06:54:17;12.50;99.90
2054;DHT22;1032;52.542;13.440;2023-03-14T06:56:44;12.70;99.90
2054;DHT22;1032;52.542;13.440;2023-03-14T06:59:10;12.40;99.90
2054;DHT22;1032;52.542;13.440;2023-03-14T07:01:37;12.40;99.90
2054;DHT22;1032;52.542;13.440;2023-03-14T07:04:06;12.60;99.90
2054;DHT22;1032;52.542;13.440;2023-03-14T07:06:35;12.60;99.90
2054;DHT22;1032;52.542;13.440;2023-03-14T07:09:01;12.60;99.90
2054;DHT22;1032;52.542;13.440;2023-03-14T07:11:29;12.70;99.90
2054;DHT22;1032;52.542;13.440;2023-03-14T07:13:56;12.80;99.90
2054;DHT22;1032;52.542;13.440;2023-03-14T07:16:24;12.80;99.90
2054;DHT22;1032;52.542;13.440;2023-03-14T07:18:54;12.90;99.90
2054;DHT22;1032;52.542;13.440;2023-03-14T07:21:21;12.70;99.90
2054;DHT22;1032;52.542;13.440;2023-03-14T07:23:53;12.80;99.90
2054;DHT22;1032;52.542;13.440;2023-03-14T07:26:20;12.80;99.90
2054;DHT22;1032;52.542;13.440;2023-03-14T07:28:51;13.00;99.90
2054;DHT22;1032;52.542;13.440;2023-03-14T07:31:20;12.90;99.90
2054;DHT22;1032;52.542;13.440;2023-03-14T07:33:47;13.00;99.90
2054;DHT22;1032;52.542;13.440;2023-03-14T07:36:14;12.90;99.90
2054;DHT22;1032;52.542;13.440;2023-03-14T07:38:43;12.70;99.90
2054;DHT22;1032;52.542;13.440;2023-03-14T07:41:25;12.80;99.90
2054;DHT22;1032;52.542;13.440;2023-03-14T07:44:12;12.70;99.90
2054;DHT22;1032;52.542;13.440;2023-03-14T07:46:39;12.50;99.90
2054;DHT22;1032;52.542;13.440;2023-03-14T07:49:06;12.90;99.90
2054;DHT22;1032;52.542;13.440;2023-03-14T07:51:33;12.60;99.90
2054;DHT22;1032;52.542;13.440;2023-03-14T07:54:00;12.60;99.90
2054;DHT22;1032;52.542;13.440;2023-03-14T07:56:29;12.80;99.90
2054;DHT22;1032;52.542;13.440;2023-03-14T07:58:57;12.60;99.90
2054;DHT22;1032;52.542;13.440;2023-03-14T08:01:25;12.70;99.90
2054;DHT22;1032;52.542;13.440;2023-03-14T08:03:52;12.60;99.90
2054;DHT22;1032;52.542;13.440;2023-03-14T08:06:19;12.60;99.90
2054;DHT22;1032;52.542;13.440;2023-03-14T08:08:46;12.70;99.90
2054;DHT22;1032;52.542;13.440;2023-03-14T08:11:13;12.80;99.90
2054;DHT22;1032;52.542;13.440;2023-03-14T08:13:40;12.90;99.90
2054;DHT22;1032;52.542;13.440;2023-03-14T08:16:08;12.60;99.90
2054;DHT22;1032;52.542;13.440;2023-03-14T08:18:36;12.80;99.90
2054;DHT22;1032;52.542;13.440;2023-03-14T08:21:03;12.90;99.90
2054;DHT22;1032;52.542;13.440;2023-03-14T08:23:33;13.00;99.90
2054;DHT22;1032;52.542;13.440;2023-03-14T08:26:00;13.20;99.90
2054;DHT22;1032;52.542;13.440;2023-03-14T08:28:27;13.10;99.90
2054;DHT22;1032;52.542;13.440;2023-03-14T08:30:56;13.40;99.90
2054;DHT22;1032;52.542;13.440;2023-03-14T08:33:23;13.70;99.90
2054;DHT22;1032;52.542;13.440;2023-03-14T08:35:54;13.40;99.90
2054;DHT22;1032;52.542;13.440;2023-03-14T08:38:21;13.60;99.90
2054;DHT22;1032;52.542;13.440;2023-03-14T08:40:48;13.50;99.90
2054;DHT22;1032;52.542;13.440;2023-03-14T08:43:16;13.80;99.90
2054;DHT22;1032;52.542;13.440;2023-03-14T08:45:43;13.60;99.90
2054;DHT22;1032;52.542;13.440;2023-03-14T08:48:10;13.60;99.90
2054;DHT22;1032;52.542;13.440;2023-03-14T08:50:39;13.70;99.90
2054;DHT22;1032;52.542;13.440;2023-03-14T08:53:07;13.60;99.90
2054;DHT22;1032;52.542;13.440;2023-03-14T08:55:34;13.40;99.90
2054;DHT22;1032;52.542;13.440;2023-03-14T08:58:01;13.50;99.90
2054;DHT22;1032;52.542;13.440;2023-03-14T09:00:28;13.60;99.90
2054;DHT22;1032;52.542;13.440;2023-03-14T09:02:57;13.50;99.90
2054;DHT22;1032;52.542;13.440;2023-03-14T09:05:24;13.90;99.90
2054;DHT22;1032;52.542;13.440;2023-03-14T09:07:51;13.50;99.90
2054;DHT22;1032;52.542;13.440;2023-03-14T09:10:20;13.50;99.90
2054;DHT22;1032;52.542;13.440;2023-03-14T09:12:47;13.60;99.90
2054;DHT22;1032;52.542;13.440;2023-03-14T09:15:14;13.90;99.90
2054;DHT22;1032;52.542;13.440;2023-03-14T09:17:42;13.90;99.90
2054;DHT22;1032;52.542;13.440;2023-03-14T09:20:10;14.00;99.90
2054;DHT22;1032;52.542;13.440;2023-03-14T09:22:37;14.10;99.90
2054;DHT22;1032;52.542;13.440;2023-03-14T09:25:05;14.20;99.90
2054;DHT22;1032;52.542;13.440;2023-03-14T09:27:34;14.20;99.90
2054;DHT22;1032;52.542;13.440;2023-03-14T09:30:01;14.20;99.90
2054;DHT22;1032;52.542;13.440;2023-03-14T09:32:27;14.00;99.90
2054;DHT22;1032;52.542;13.440;2023-03-14T09:34:54;14.10;99.90
2054;DHT22;1032;52.542;13.440;2023-03-14T09:37:21;14.10;99.90
2054;DHT22;1032;52.542;13.440;2023-03-14T09:39:48;14.10;99.90
2054;DHT22;1032;52.542;13.440;2023-03-14T09:42:18;14.00;99.90
2054;DHT22;1032;52.542;13.440;2023-03-14T09:44:54;14.30;99.90
2054;DHT22;1032;52.542;13.440;2023-03-14T09:47:22;14.20;99.90
2054;DHT22;1032;52.542;13.440;2023-03-14T09:49:50;14.60;99.90
2054;DHT22;1032;52.542;13.440;2023-03-14T09:52:20;14.50;99.90
2054;DHT22;1032;52.542;13.440;2023-03-14T09:54:50;14.60;99.90
2054;DHT22;1032;52.542;13.440;2023-03-14T09:57:20;14.70;99.90
2054;DHT22;1032;52.542;13.440;2023-03-14T09:59:50;14.60;99.90
2054;DHT22;1032;52.542;13.440;2023-03-14T10:02:20;14.60;99.90
2054;DHT22;1032;52.542;13.440;2023-03-14T10:04:49;14.70;99.90
2054;DHT22;1032;52.542;13.440;2023-03-14T10:07:18;14.60;99.90
2054;DHT22;1032;52.542;13.440;2023-03-14T10:09:49;14.60;99.90
2054;DHT22;1032;52.542;13.440;2023-03-14T10:12:17;14.60;99.90
2054;DHT22;1032;52.542;13.440;2023-03-14T10:14:49;14.80;99.90
2054;DHT22;1032;52.542;13.440;2023-03-14T10:17:18;14.90;99.90
2054;DHT22;1032;52.542;13.440;2023-03-14T10:19:54;14.60;99.90
2054;DHT22;1032;52.542;13.440;2023-03-14T10:22:23;14.70;99.90
2054;DHT22;1032;52.542;13.440;2023-03-14T10:24:53;14.60;99.90
2054;DHT22;1032;52.542;13.440;2023-03-14T10:27:26;14.70;99.90
2054;DHT22;1032;52.542;13.440;2023-03-14T10:29:56;14.70;99.90
2054;DHT22;1032;52.542;13.440;2023-03-14T10:32:30;14.80;99.90
2054;DHT22;1032;52.542;13.440;2023-03-14T10:35:08;14.70;99.90
2054;DHT22;1032;52.542;13.440;2023-03-14T10:37:35;14.90;99.90
2054;DHT22;1032;52.542;13.440;2023-03-14T10:40:03;14.70;99.90
2054;DHT22;1032;52.542;13.440;2023-03-14T10:42:33;15.00;99.90
2054;DHT22;1032;52.542;13.440;2023-03-14T10:45:04;14.80;99.90
2054;DHT22;1032;52.542;13.440;2023-03-14T10:47:33;14.80;99.90
2054;DHT22;1032;52.542;13.440;2023-03-14T10:50:23;14.70;99.90
2054;DHT22;1032;52.542;13.440;2023-03-14T10:52:52;14.70;99.90
2054;DHT22;1032;52.542;13.440;2023-03-14T10:55:20;14.60;99.90
2054;DHT22;1032;52.542;13.440;2023-03-14T10:57:47;14.40;99.90
2054;DHT22;1032;52.542;13.440;2023-03-14T11:00:18;14.70;99.90
2054;DHT22;1032;52.542;13.440;2023-03-14T11:03:03;14.80;99.90
2054;DHT22;1032;52.542;13.440;2023-03-14T11:05:38;15.10;99.50
2054;DHT22;1032;52.542;13.440;2023-03-14T11:08:11;14.80;99.40
2054;DHT22;1032;52.542;13.440;2023-03-14T11:10:45;15.30;99.40
2054;DHT22;1032;52.542;13.440;2023-03-14T11:13:17;15.10;98.80
2054;DHT22;1032;52.542;13.440;2023-03-14T11:15:53;15.40;99.20
2054;DHT22;1032;52.542;13.440;2023-03-14T11:18:46;15.30;99.70
2054;DHT22;1032;52.542;13.440;2023-03-14T11:21:19;15.40;98.90
2054;DHT22;1032;52.542;13.440;2023-03-14T11:23:56;15.20;99.00
2054;DHT22;1032;52.542;13.440;2023-03-14T11:26:30;15.30;98.70
2054;DHT22;1032;52.542;13.440;2023-03-14T11:29:07;15.20;98.80
2054;DHT22;1032;52.542;13.440;2023-03-14T11:31:39;15.10;99.00
2054;DHT22;1032;52.542;13.440;2023-03-14T11:34:15;15.30;99.30
2054;DHT22;1032;52.542;13.440;2023-03-14T11:36:48;15.00;99.20
2054;DHT22;1032;52.542;13.440;2023-03-14T11:39:18;15.00;99.40
2054;DHT22;1032;52.542;13.440;2023-03-14T11:41:47;14.90;99.50
2054;DHT22;1032;52.542;13.440;2023-03-14T11:44:19;15.00;99.60
2054;DHT22;1032;52.542;13.440;2023-03-14T11:46:51;14.80;99.60
2054;DHT22;1032;52.542;13.440;2023-03-14T11:49:30;14.80;99.50
2054;DHT22;1032;52.542;13.440;2023-03-14T11:52:00;14.90;99.80
2054;DHT22;1032;52.542;13.440;2023-03-14T11:54:35;15.00;99.90
2054;DHT22;1032;52.542;13.440;2023-03-14T11:57:08;14.80;99.90
2054;DHT22;1032;52.542;13.440;2023-03-14T11:59:47;15.10;99.90
2054;DHT22;1032;52.542;13.440;2023-03-14T12:02:24;15.10;99.90
2054;DHT22;1032;52.542;13.440;2023-03-14T12:05:07;15.10;99.90
2054;DHT22;1032;52.542;13.440;2023-03-14T12:07:41;15.30;99.90
2054;DHT22;1032;52.542;13.440;2023-03-14T12:10:12;15.20;99.90
2054;DHT22;1032;52.542;13.440;2023-03-14T12:12:39;15.30;99.90
2054;DHT22;1032;52.542;13.440;2023-03-14T12:15:18;15.20;99.90
2054;DHT22;1032;52.542;13.440;2023-03-14T12:17:53;15.30;99.90
2054;DHT22;1032;52.542;13.440;2023-03-14T12:20:22;15.30;99.90
2054;DHT22;1032;52.542;13.440;2023-03-14T12:22:53;15.20;99.90
2054;DHT22;1032;52.542;13.440;2023-03-14T12:25:22;15.20;99.90
2054;DHT22;1032;52.542;13.440;2023-03-14T12:28:11;15.40;99.90
2054;DHT22;1032;52.542;13.440;2023-03-14T12:30:42;15.50;99.90
2054;DHT22;1032;52.542;13.440;2023-03-14T12:33:26;15.40;99.90
2054;DHT22;1032;52.542;13.440;2023-03-14T12:36:01;15.60;99.90
2054;DHT22;1032;52.542;13.440;2023-03-14T12:41:20;15.50;99.90
2054;DHT22;1032;52.542;13.440;2023-03-14T12:43:49;15.40;99.90
2054;DHT22;1032;52.542;13.440;2023-03-14T12:46:21;15.50;99.90
2054;DHT22;1032;52.542;13.440;2023-03-14T12:48:55;15.90;99.90
2054;DHT22;1032;52.542;13.440;2023-03-14T12:51:29;15.70;99.90
2054;DHT22;1032;52.542;13.440;2023-03-14T12:54:25;16.10;99.90
2054;DHT22;1032;52.542;13.440;2023-03-14T12:57:04;15.90;99.90
2054;DHT22;1032;52.542;13.440;2023-03-14T12:59:33;15.70;99.90
2054;DHT22;1032;52.542;13.440;2023-03-14T13:05:04;15.80;99.90
2054;DHT22;1032;52.542;13.440;2023-03-14T13:08:04;16.00;99.90
2054;DHT22;1032;52.542;13.440;2023-03-14T13:10:39;15.80;99.90
2054;DHT22;1032;52.542;13.440;2023-03-14T13:13:17;15.90;99.90
2054;DHT22;1032;52.542;13.440;2023-03-14T13:15:46;15.60;99.90
2054;DHT22;1032;52.542;13.440;2023-03-14T13:18:18;15.60;99.90
2054;DHT22;1032;52.542;13.440;2023-03-14T13:20:53;15.60;99.90
2054;DHT22;1032;52.542;13.440;2023-03-14T13:23:22;15.70;99.90
2054;DHT22;1032;52.542;13.440;2023-03-14T13:25:49;15.70;99.90
2054;DHT22;1032;52.542;13.440;2023-03-14T13:28:17;15.60;99.90
2054;DHT22;1032;52.542;13.440;2023-03-14T13:30:46;15.30;99.90
2054;DHT22;1032;52.542;13.440;2023-03-14T13:33:16;15.20;99.90
2054;DHT22;1032;52.542;13.440;2023-03-14T13:35:46;15.10;99.90
2054;DHT22;1032;52.542;13.440;2023-03-14T13:38:17;15.30;99.90
2054;DHT22;1032;52.542;13.440;2023-03-14T13:40:46;15.20;99.90
2054;DHT22;1032;52.542;13.440;2023-03-14T13:43:19;14.90;99.90
2054;DHT22;1032;52.542;13.440;2023-03-14T13:45:51;15.40;99.90
2054;DHT22;1032;52.542;13.440;2023-03-14T13:48:20;15.00;99.90
2054;DHT22;1032;52.542;13.440;2023-03-14T13:50:53;15.00;99.90
2054;DHT22;1032;52.542;13.440;2023-03-14T13:53:23;14.80;99.90
2054;DHT22;1032;52.542;13.440;2023-03-14T13:55:50;15.00;99.90
2054;DHT22;1032;52.542;13.440;2023-03-14T13:58:23;15.20;99.90
2054;DHT22;1032;52.542;13.440;2023-03-14T14:00:59;15.20;99.90
2054;DHT22;1032;52.542;13.440;2023-03-14T14:03:27;14.60;99.90
2054;DHT22;1032;52.542;13.440;2023-03-14T14:05:55;14.20;99.90
2054;DHT22;1032;52.542;13.440;2023-03-14T14:08:24;15.50;99.90
2054;DHT22;1032;52.542;13.440;2023-03-14T14:10:55;15.00;99.90
2054;DHT22;1032;52.542;13.440;2023-03-14T14:13:23;15.40;99.90
2054;DHT22;1032;52.542;13.440;2023-03-14T14:15:52;15.10;99.90
2054;DHT22;1032;52.542;13.440;2023-03-14T14:18:23;15.00;99.90
2054;DHT22;1032;52.542;13.440;2023-03-14T14:20:51;14.90;99.90
2054;DHT22;1032;52.542;13.440;2023-03-14T14:23:19;14.90;99.90
2054;DHT22;1032;52.542;13.440;2023-03-14T14:25:52;15.10;99.90
2054;DHT22;1032;52.542;13.440;2023-03-14T14:28:24;15.10;99.90
2054;DHT22;1032;52.542;13.440;2023-03-14T14:31:05;14.40;99.90
2054;DHT22;1032;52.542;13.440;2023-03-14T14:33:39;14.80;99.90
2054;DHT22;1032;52.542;13.440;2023-03-14T14:36:15;14.90;99.90
2054;DHT22;1032;52.542;13.440;2023-03-14T14:38:49;15.10;99.90
2054;DHT22;1032;52.542;13.440;2023-03-14T14:41:17;15.50;99.90
2054;DHT22;1032;52.542;13.440;2023-03-14T14:43:44;15.00;99.90
2054;DHT22;1032;52.542;13.440;2023-03-14T14:46:17;15.00;99.90
2054;DHT22;1032;52.542;13.440;2023-03-14T14:48:44;14.90;99.90
2054;DHT22;1032;52.542;13.440;2023-03-14T14:51:23;15.00;99.90
2054;DHT22;1032;52.542;13.440;2023-03-14T14:54:01;15.00;99.90
2054;DHT22;1032;52.542;13.440;2023-03-14T14:56:30;14.90;99.90
2054;DHT22;1032;52.542;13.440;2023-03-14T14:59:02;15.00;99.90
2054;DHT22;1032;52.542;13.440;2023-03-14T15:01:33;15.10;99.90
2054;DHT22;1032;52.542;13.440;2023-03-14T15:04:01;15.30;99.90
2054;DHT22;1032;52.542;13.440;2023-03-14T15:06:29;14.90;99.90
2054;DHT22;1032;52.542;13.440;2023-03-14T15:08:57;14.60;99.90
2054;DHT22;1032;52.542;13.440;2023-03-14T15:11:25;15.40;99.90
2054;DHT22;1032;52.542;13.440;2023-03-14T15:13:54;15.20;99.90
2054;DHT22;1032;52.542;13.440;2023-03-14T15:16:22;15.00;99.90
2054;DHT22;1032;52.542;13.440;2023-03-14T15:18:53;14.60;99.90
2054;DHT22;1032;52.542;13.440;2023-03-14T15:21:21;14.50;99.90
2054;DHT22;1032;52.542;13.440;2023-03-14T15:23:47;14.70;99.90
2054;DHT22;1032;52.542;13.440;2023-03-14T15:26:16;14.60;99.90
2054;DHT22;1032;52.542;13.440;2023-03-14T15:28:43;13.90;99.90
2054;DHT22;1032;52.542;13.440;2023-03-14T15:31:13;13.00;99.90
2054;DHT22;1032;52.542;13.440;2023-03-14T15:33:40;12.30;99.90
2054;DHT22;1032;52.542;13.440;2023-03-14T15:36:19;11.60;99.90
2054;DHT22;1032;52.542;13.440;2023-03-14T15:38:47;11.10;99.90
2054;DHT22;1032;52.542;13.440;2023-03-14T15:41:13;10.30;99.90
2054;DHT22;1032;52.542;13.440;2023-03-14T15:43:40;10.50;99.90
2054;DHT22;1032;52.542;13.440;2023-03-14T15:46:08;9.70;99.90
2054;DHT22;1032;52.542;13.440;2023-03-14T15:48:36;10.10;99.90
2054;DHT22;1032;52.542;13.440;2023-03-14T15:51:03;9.90;99.90
2054;DHT22;1032;52.542;13.440;2023-03-14T15:53:30;9.50;99.90
2054;DHT22;1032;52.542;13.440;2023-03-14T15:55:56;9.00;99.90
2054;DHT22;1032;52.542;13.440;2023-03-14T15:58:23;8.40;99.90
2054;DHT22;1032;52.542;13.440;2023-03-14T16:00:50;7.40;99.90
2054;DHT22;1032;52.542;13.440;2023-03-14T16:03:17;7.10;99.90
2054;DHT22;1032;52.542;13.440;2023-03-14T16:05:45;7.40;99.90
2054;DHT22;1032;52.542;13.440;2023-03-14T16:08:12;6.50;99.90
2054;DHT22;1032;52.542;13.440;2023-03-14T16:10:38;6.50;99.90
2054;DHT22;1032;52.542;13.440;2023-03-14T16:13:06;6.50;99.90
2054;DHT22;1032;52.542;13.440;2023-03-14T16:15:33;6.20;99.90
2054;DHT22;1032;52.542;13.440;2023-03-14T16:17:59;6.00;99.90